Tiempo atmosférico en la estación meteorológica de San Bartolome Tirajana, Cuevas del Pinar, Las Palmas (1220 m.)



Fecha
DESCASC
Temp. máxima en grados centígrados (hora)
DESCASC
Temp. mínima en grados centígrados (hora)
DESCASC
Temp. media en grados centígrados
DESCASC
Racha de viento máxima en m/sg (hora)
DESCASC
Velocidad máxima media en intervalos de 10 minutos(hora)
DESCASC
Precipitaciones diarias en mm
DESCASC
Precipitaciones de 00:00 a 06:00 en mm
DESCASC
Precipitaciones de 06:00 a 12:00 en mm
DESCASC
Precipitaciones de 12:00 a 18:00 en mm
DESCASC
Precipitaciones de 18:00 a 24:00 en mm
DESCASC
19-09-2019 25.3 (11:30) 18.8 (02:30) 22 6.67 (15:40) 3.33 (15:40) 0 0 0 0 0
18-09-2019 25.5 (17:00) 17.9 (20:50) 21.7 6.39 (13:30) 3.61 (17:20) 0 0 0 0 0
17-09-2019 29.4 (16:30) 21.6 (00:00) 25.5 7.5 (13:10) 4.44 (13:50) 0 0 0 0 0
16-09-2019 27.9 (01:50) 22.1 (00:00) 25 13.06 (09:20) 5.83 (13:20) 0.2 0 0 0.2 0
15-09-2019 29.7 (15:30) 17.8 (00:00) 23.8 6.11 (14:10) 3.61 (14:20) 0 0 0 0 0
14-09-2019 23.5 (16:10) 16 (00:00) 19.8 7.22 (12:30) 3.61 (13:30) 0 0 0 0 0
13-09-2019 24 (14:40) 16.2 (00:00) 20.1 6.39 (14:00) 3.33 (13:20) 0 0 0 0 0
12-09-2019 24.4 (12:30) 17.2 (00:00) 20.8 9.17 (03:00) 3.89 (00:30) 0 0 0 0 0
11-09-2019 25.8 (16:40) 20.5 (00:00) 23.1 11.67 (21:10) 5 (21:10) 0 0 0 0 0
10-09-2019 29.1 (16:40) 19.9 (00:30) 24.5 11.11 (18:50) 4.17 (18:50) 0 0 0 0 0
09-09-2019 24.7 (14:10) 18.6 (05:50) 21.7 10 (13:00) 3.61 (11:00) 0 0 0 0 0
08-09-2019 23.9 (16:30) 16.3 (00:00) 20.1 9.72 (20:40) 3.89 (22:00) 0 0 0 0 0
07-09-2019 23.2 (15:30) 15.9 (00:00) 19.6 6.67 (06:10) 3.89 (06:10) 0 0 0 0 0
06-09-2019 21 (14:40) 12.6 (00:00) 16.8 6.94 (16:30) 3.33 (12:00) 0 0 0 0 0
05-09-2019 24.9 (12:50) 16.8 (00:00) 20.8 6.67 (23:30) 3.61 (23:30) 0 0 0 0 0
04-09-2019 25.6 (15:30) 16.4 (00:00) 21 5.56 (16:30) 2.78 (16:10) 0 0 0 0 0
03-09-2019 25.4 (17:50) 18.4 (00:00) 21.9 5.83 (13:20) 3.61 (13:20) 0 0 0 0 0
02-09-2019 25.9 (17:00) 18.1 (00:00) 22 5.83 (15:30) 3.33 (15:30) 0 0 0 0 0
01-09-2019 27.6 (12:20) 21.3 (00:00) 24.4 6.39 (13:10) 3.33 (16:20) 0 0 0 0 0
31-08-2019 30 (12:30) 24.2 (00:00) 27.1 6.39 (15:10) 3.33 (15:20) 0 0 0 0 0
30-08-2019 30.5 (14:40) 19.8 (00:00) 25.1 6.39 (11:50) 3.61 (12:00) 0 0 0 0 0
29-08-2019 29.8 (16:30) 22.9 (00:00) 26.3 9.44 (10:10) 3.89 (15:50) 0 0 0 0 0
28-08-2019 28.6 (16:00) 22.3 (00:00) 25.4 6.94 (16:20) 3.89 (15:10) 0 0 0 0 0
27-08-2019 29.3 (13:00) 23.3 (00:00) 26.3 8.06 (11:40) 4.44 (14:50) 0 0 0 0 0
26-08-2019 30.8 (16:10) 23.8 (00:00) 27.3 10 (22:30) 4.17 (04:10) 0 0 0 0 0
25-08-2019 31.6 (13:50) 25.1 (00:00) 28.4 13.89 (16:00) 6.67 (14:30) 0 0 0 0 0
24-08-2019 34.5 (16:50) 27.3 (00:00) 30.9 16.94 (18:20) 8.89 (18:10) 0.2 0 0.2 0 0
23-08-2019 34.2 (18:40) 28.4 (00:00) 31.3 10 (12:40) 3.89 (15:30) 0 0 0 0 0

Gráficas

Temp. máximas Temp. mínimas Temp. medias Precipitaciones Rachas de viento máximas Velocidades máximas media en intervalos de 10 minutos

Datos horarios

Fecha y hora oficial Temperatura (ºC) Velocidad del viento (km/h) Dirección del viento Racha (km/h) Dirección de racha Precipitación (mm) Presión (hPa) Tendencia (hPa) Humedad (%)
2019-09-21 23:00:00 17.7 4 Nordeste 9 Este 0 -- -- 57
2019-09-21 22:00:00 16.3 0 Calma 17 Este 0 -- -- 91
2019-09-21 21:00:00 16.8 5 Nordeste 8 Nordeste 0 -- -- 90
2019-09-21 20:00:00 18.9 5 Noroeste 11 Oeste 0 -- -- 82
2019-09-21 19:00:00 22.6 6 Oeste 16 Oeste 0 -- -- 67
2019-09-21 18:00:00 21.9 7 Nordeste 15 Nordeste 0 -- -- 69
2019-09-21 17:00:00 22.4 8 Norte 20 Oeste 0 -- -- 64
2019-09-21 16:00:00 22.1 8 Nordeste 21 Norte 0 -- -- 68
2019-09-21 15:00:00 23.8 8 Noroeste 20 Norte 0 -- -- 53
2019-09-21 14:00:00 23.2 8 Oeste 19 Norte 0 -- -- 56
2019-09-21 13:00:00 24.8 5 Oeste 15 Oeste 0 -- -- 26
2019-09-21 12:00:00 23.3 8 Noroeste 16 Noroeste 0 -- -- 41
2019-09-21 11:00:00 23.4 6 Oeste 12 Noroeste 0 -- -- 20
2019-09-21 10:00:00 19.6 6 Sur 10 Sur 0 -- -- 22
2019-09-21 09:00:00 18.5 3 Sudoeste 7 Sudoeste 0 -- -- 28
2019-09-21 08:00:00 18.1 5 Sudoeste 8 Sudoeste 0 -- -- 32
2019-09-21 07:00:00 18 3 Sudoeste 8 Sudeste 0 -- -- 30
2019-09-21 06:00:00 16.8 2 Este 9 Nordeste 0 -- -- 43
2019-09-21 05:00:00 16.6 3 Nordeste 10 Nordeste 0 -- -- 60
2019-09-21 04:00:00 16.8 6 Este 15 Nordeste 0 -- -- 71
2019-09-21 03:00:00 17.6 0 Calma 12 Nordeste 0 -- -- 52
2019-09-21 02:00:00 18.2 0 Calma 9 Sudoeste 0 -- -- 40
2019-09-21 01:00:00 16.7 3 Sudoeste 9 Sudoeste 0 -- -- 74
2019-09-21 00:00:00 17.1 0 Calma 12 Nordeste 0 -- -- 76
2019-09-20 23:00:00 18.5 3 Sur 9 Nordeste 0 -- -- 53
2019-09-20 22:00:00 18.2 0 Calma 9 Este 0 -- -- 72
2019-09-20 21:00:00 18.8 2 Este 8 Sudoeste 0 -- -- 78
2019-09-20 20:00:00 20.1 4 Oeste 15 Nordeste 0 -- -- 72
2019-09-20 19:00:00 21.6 10 Nordeste 17 Nordeste 0 -- -- 65
2019-09-20 18:00:00 24.7 6 Nordeste 22 Nordeste 0 -- -- 56
2019-09-20 17:00:00 27.2 5 Sudoeste 16 Oeste 0 -- -- 44
2019-09-20 16:00:00 24.5 7 Oeste 19 Nordeste 0 -- -- 57
2019-09-20 15:00:00 23.2 9 Noroeste 22 Norte 0 -- -- 62
2019-09-20 14:00:00 23 6 Noroeste 22 Norte 0 -- -- 61
2019-09-20 13:00:00 23.3 7 Noroeste 17 Norte 0 -- -- 53
2019-09-20 12:00:00 21.7 11 Nordeste 18 Nordeste 0 -- -- 57
2019-09-20 11:00:00 23.2 7 Sudoeste 14 Sudoeste 0 -- -- 23
2019-09-20 10:00:00 19.2 2 Noroeste 9 Nordeste 0 -- -- 39
2019-09-20 09:00:00 19.2 0 Calma 5 Nordeste 0 -- -- 38
2019-09-20 08:00:00 19.3 0 Calma 9 Este 0 -- -- 37
2019-09-20 07:00:00 19.6 0 Calma 8 Sur 0 -- -- 35
2019-09-20 06:00:00 20.1 4 Sudeste 8 Sur 0 -- -- 30
2019-09-20 05:00:00 19.6 5 Sur 8 Sur 0 -- -- 38
2019-09-20 04:00:00 19.9 3 Sur 11 Nordeste 0 -- -- 36
2019-09-20 03:00:00 19.6 7 Este 13 Este 0 -- -- 61
2019-09-20 02:00:00 20.2 6 Este 13 Nordeste 0 -- -- 55
2019-09-20 01:00:00 20.5 0 Calma 6 Sur 0 -- -- 53
2019-09-20 00:00:00 20.8 5 Sur 8 Sudeste 0 -- -- 44
2019-09-19 23:00:00 20.5 4 Nordeste 7 Este 0 -- -- 55
2019-09-19 22:00:00 19.9 6 Este 10 Nordeste 0 -- -- 72
2019-09-19 21:00:00 19.4 0 Calma 5 Norte 0 -- -- 73
2019-09-19 20:00:00 21 4 Oeste 14 Nordeste 0 -- -- 67
2019-09-19 19:00:00 21.5 9 Nordeste 15 Nordeste 0 -- -- 69
2019-09-19 18:00:00 23.1 8 Norte 15 Nordeste 0 -- -- 63
2019-09-19 17:00:00 24.1 7 Norte 23 Norte 0 -- -- 60
2019-09-19 16:00:00 25 6 Sudoeste 24 Noroeste 0 -- -- 57
2019-09-19 15:00:00 24.4 9 Noroeste 23 Norte 0 -- -- 59
2019-09-19 14:00:00 23.9 10 Nordeste 21 Norte 0 -- -- 55
2019-09-19 13:00:00 23.2 9 Nordeste 18 Nordeste 0 -- -- 54
2019-09-19 12:00:00 25.1 6 Oeste 13 Noroeste 0 -- -- 39
2019-09-19 11:00:00 24.6 0 Calma 8 Oeste 0 -- -- 28
2019-09-19 10:00:00 21.2 2 Norte 14 Nordeste 0 -- -- 32
2019-09-19 09:00:00 21.1 6 Nordeste 10 Nordeste 0 -- -- 30
2019-09-19 08:00:00 19.5 2 Sur 6 Sur 0 -- -- 36
2019-09-19 07:00:00 19.1 4 Sur 5 Sur 0 -- -- 40
2019-09-19 06:00:00 18.9 3 Sudeste 9 Nordeste 0 -- -- 48
2019-09-19 05:00:00 19.3 0 Calma 6 Este 0 -- -- 46
2019-09-19 04:00:00 19.3 0 Calma 6 Sur 0 -- -- 48
2019-09-19 03:00:00 18.9 3 Sur 6 Sur 0 -- -- 48
2019-09-19 02:00:00 19.3 5 Este 12 Este 0 -- -- 61
2019-09-19 01:00:00 20 4 Este 13 Este 0 -- -- 58
2019-09-19 00:00:00 19.2 2 Sur 10 Nordeste 0 -- -- 61
2019-09-18 23:00:00 19.3 0 Calma 4 Sudeste 0 -- -- 59
2019-09-18 22:00:00 19.7 2 Sur 5 Sudoeste 0 -- -- 63
2019-09-18 21:00:00 18.7 3 Sur 21 Nordeste 0 -- -- 77
2019-09-18 20:00:00 21.7 3 Norte 13 Noroeste 0 -- -- 70
2019-09-18 19:00:00 22.2 9 Nordeste 17 Nordeste 0 -- -- 67
2019-09-18 18:00:00 23.6 7 Oeste 21 Nordeste 0 -- -- 65
2019-09-18 17:00:00 25.5 6 Oeste 17 Norte 0 -- -- 58
2019-09-18 16:00:00 23.8 9 Norte 22 Nordeste 0 -- -- 57
2019-09-18 15:00:00 24.3 9 Norte 21 Nordeste 0 -- -- 53
2019-09-18 14:00:00 24.2 8 Este 23 Nordeste 0 -- -- 45
2019-09-18 13:00:00 24 7 Nordeste 20 Norte 0 -- -- 46
2019-09-18 12:00:00 23.6 9 Nordeste 18 Norte 0 -- -- 39
2019-09-18 11:00:00 22.7 6 Nordeste 14 Norte 0 -- -- 36
2019-09-18 10:00:00 21.5 3 Nordeste 11 Norte 0 -- -- 40
2019-09-18 09:00:00 20.8 3 Nordeste 9 Este 0 -- -- 39
2019-09-18 08:00:00 19.8 0 Calma 5 Sur 0 -- -- 35
2019-09-18 07:00:00 20.2 0 Calma 4 Nordeste 0 -- -- 35
2019-09-18 06:00:00 21 3 Sudoeste 8 Sudeste 0 -- -- 24
2019-09-18 05:00:00 20.7 0 Calma 11 Este 0 -- -- 40
2019-09-18 04:00:00 21.4 3 Este 12 Nordeste 0 -- -- 38
2019-09-18 03:00:00 21.3 0 Calma 14 Nordeste 0 -- -- 34
2019-09-18 02:00:00 21.5 7 Este 11 Nordeste 0 -- -- 58
2019-09-18 01:00:00 20.7 0 Calma 9 Este 0 -- -- 58
2019-09-18 00:00:00 21.6 0 Calma 4 Sudoeste 0 -- -- 51
2019-09-17 23:00:00 22.8 3 Sudoeste 12 Sur 0 -- -- 31
2019-09-17 22:00:00 21.9 0 Calma 5 Sudeste 0 -- -- 59
2019-09-17 21:00:00 22.7 4 Este 12 Nordeste 0 -- -- 66
2019-09-17 20:00:00 23.6 3 Oeste 11 Oeste 0 -- -- 66
2019-09-15 17:00:00 26.5 9 Norte 19 Norte 0 -- -- 47
2019-09-15 16:00:00 27.9 9 Nordeste 19 Oeste 0 -- -- 36
2019-09-15 15:00:00 28.4 9 Noroeste 22 Norte 0 -- -- 36
2019-09-15 14:00:00 28.5 6 Oeste 17 Nordeste 0 -- -- 28
2019-09-15 13:00:00 28.8 6 Noroeste 15 Oeste 0 -- -- 19
2019-09-15 12:00:00 27.5 4 Sudoeste 15 Nordeste 0 -- -- 16
2019-09-15 11:00:00 24.9 3 Este 15 Nordeste 0 -- -- 19
2019-09-15 10:00:00 22.9 5 Sur 9 Sur 0 -- -- 12
2019-09-15 09:00:00 22.7 4 Sur 9 Sudoeste 0 -- -- 11
2019-09-15 08:00:00 20.6 5 Este 11 Este 0 -- -- 16
2019-09-15 07:00:00 20.9 11 Este 14 Este 0 -- -- 21
2019-09-15 06:00:00 21.1 7 Este 13 Nordeste 0 -- -- 21
2019-09-15 05:00:00 20.9 2 Sudeste 10 Este 0 -- -- 21
2019-09-15 04:00:00 18.4 0 Calma 12 Nordeste 0 -- -- 36
2019-09-15 03:00:00 19.3 6 Nordeste 10 Nordeste 0 -- -- 47
2019-09-15 02:00:00 20.5 2 Sudeste 12 Este 0 -- -- 34
2019-09-15 01:00:00 20.1 7 Nordeste 11 Nordeste 0 -- -- 47
2019-09-15 00:00:00 17.8 0 Calma 6 Norte 0 -- -- 53
2019-09-14 23:00:00 19.4 0 Calma 6 Nordeste 0 -- -- 42
2019-09-14 22:00:00 18.2 3 Este 13 Nordeste 0 -- -- 60
2019-09-14 21:00:00 19.1 12 Este 18 Nordeste 0 -- -- 71
2019-09-14 20:00:00 19.7 10 Nordeste 15 Nordeste 0 -- -- 66
2019-09-14 19:00:00 21.8 8 Nordeste 16 Nordeste 0 -- -- 58
2019-09-14 18:00:00 22.2 8 Nordeste 19 Este 0 -- -- 57
2019-09-14 17:00:00 23.3 9 Nordeste 21 Norte 0 -- -- 51
2019-09-14 16:00:00 23.1 7 Nordeste 21 Norte 0 -- -- 50
2019-09-14 15:00:00 22.7 9 Norte 23 Nordeste 0 -- -- 53
2019-09-14 14:00:00 22.7 8 Este 24 Norte 0 -- -- 48
2019-09-14 13:00:00 22.1 9 Norte 26 Norte 0 -- -- 49
2019-09-14 12:00:00 21.6 5 Nordeste 22 Nordeste 0 -- -- 45
2019-09-14 11:00:00 20.5 8 Nordeste 15 Norte 0 -- -- 40
2019-09-14 10:00:00 18.1 6 Norte 13 Nordeste 0 -- -- 49
2019-09-14 09:00:00 17.2 4 Este 13 Nordeste 0 -- -- 49
2019-09-14 08:00:00 17.1 0 Calma 6 Sur 0 -- -- 48
2019-09-14 07:00:00 17.6 4 Sur 8 Sur 0 -- -- 34
2019-09-14 06:00:00 17.4 2 Sur 12 Nordeste 0 -- -- 40
2019-09-14 05:00:00 16.1 7 Este 12 Este 0 -- -- 56
2019-09-14 04:00:00 17.1 3 Sur 9 Nordeste 0 -- -- 44
2019-09-14 03:00:00 17.1 4 Nordeste 7 Nordeste 0 -- -- 51
2019-09-14 02:00:00 17.8 4 Sudoeste 8 Sur 0 -- -- 35
2019-09-14 01:00:00 17.8 5 Este 12 Nordeste 0 -- -- 45
2019-09-14 00:00:00 18.3 0 Calma 7 Sur 0 -- -- 44
2019-09-13 23:00:00 17.8 5 Sudoeste 8 Sudoeste 0 -- -- 58
2019-09-13 22:00:00 17.3 0 Calma 5 Sudeste 0 -- -- 61
2019-09-13 21:00:00 17.1 0 Calma 8 Nordeste 0 -- -- 74
2019-09-13 20:00:00 19.5 5 Oeste 14 Norte 0 -- -- 65
2019-09-13 19:00:00 19.5 7 Nordeste 18 Norte 0 -- -- 64
2019-09-13 18:00:00 21.1 6 Nordeste 22 Norte 0 -- -- 56
2019-09-13 17:00:00 22.5 9 Oeste 22 Sudoeste 0 -- -- 54
2019-09-13 16:00:00 23.5 6 Oeste 18 Oeste 0 -- -- 51
2019-09-13 15:00:00 23.8 8 Oeste 19 Noroeste 0 -- -- 49
2019-09-13 14:00:00 22.6 11 Nordeste 23 Norte 0 -- -- 47
2019-09-13 13:00:00 22.9 9 Norte 18 Sudoeste 0 -- -- 41
2019-09-13 12:00:00 22.1 6 Nordeste 18 Norte 0 -- -- 35
2019-09-13 11:00:00 21.2 5 Norte 14 Nordeste 0 -- -- 37
2019-09-13 10:00:00 17.9 0 Calma 12 Este 0 -- -- 37
2019-09-13 09:00:00 16.9 0 Calma 14 Este 0 -- -- 35
2019-09-13 08:00:00 16.5 0 Calma 10 Este 0 -- -- 36
2019-09-13 07:00:00 16.6 3 Sur 10 Este 0 -- -- 34
2019-09-13 06:00:00 16.2 4 Sudeste 8 Sudeste 0 -- -- 42
2019-09-13 05:00:00 16.4 0 Calma 7 Sudeste 0 -- -- 41
2019-09-13 04:00:00 16.4 2 Sur 7 Sur 0 -- -- 42
2019-09-13 03:00:00 16.5 3 Sudeste 11 Este 0 -- -- 42
2019-09-13 02:00:00 17.6 6 Este 11 Nordeste 0 -- -- 40
2019-09-13 01:00:00 17.6 7 Sur 12 Sur 0 -- -- 41
2019-09-13 00:00:00 17.8 0 Calma 12 Este 0 -- -- 45
2019-09-12 23:00:00 18.4 8 Este 12 Este 0 -- -- 44
2019-09-12 22:00:00 18.3 2 Sur 9 Nordeste 0 -- -- 48
2019-09-12 21:00:00 18.8 4 Oeste 8 Sudoeste 0 -- -- 64
2019-09-12 20:00:00 20.8 6 Noroeste 13 Oeste 0 -- -- 58
2019-09-12 19:00:00 23.4 6 Norte 20 Noroeste 0 -- -- 39
2019-09-12 18:00:00 22.5 8 Nordeste 19 Norte 0 -- -- 38
2019-09-12 17:00:00 22.6 9 Este 20 Norte 0 -- -- 49
2019-09-12 16:00:00 23.5 9 Noroeste 23 Norte 0 -- -- 45
2019-09-12 15:00:00 23.4 8 Noroeste 17 Oeste 0 -- -- 43
2019-09-12 14:00:00 23.9 7 Oeste 19 Norte 0 -- -- 39
2019-09-12 13:00:00 23.9 12 Noroeste 23 Oeste 0 -- -- 39
2019-09-12 12:00:00 22.2 6 Oeste 20 Norte 0 -- -- 28
2019-09-12 11:00:00 21.7 5 Noroeste 10 Oeste 0 -- -- 26
2019-09-12 10:00:00 18.3 0 Calma 7 Este 0 -- -- 21
2019-09-12 09:00:00 17.7 5 Este 14 Nordeste 0 -- -- 28
2019-09-12 08:00:00 18 5 Este 9 Nordeste 0 -- -- 16
2019-09-12 07:00:00 18 5 Este 13 Sur 0 -- -- 17
2019-09-12 06:00:00 18.5 4 Oeste 12 Sudeste 0 -- -- 15
2019-09-12 05:00:00 19.2 5 Sudoeste 15 Sudeste 0 -- -- 23
2019-09-12 04:00:00 20.2 6 Este 24 Este 0 -- -- 14
2019-09-12 03:00:00 22.3 12 Norte 33 Nordeste 0 -- -- 7
2019-09-12 02:00:00 20.4 9 Este 22 Nordeste 0 -- -- 13
2019-09-12 01:00:00 22.1 12 Norte 31 Norte 0 -- -- 20
2019-09-12 00:00:00 22.4 11 Norte 37 Nordeste 0 -- -- 29
2019-09-11 23:00:00 22.2 10 Norte 30 Nordeste 0 -- -- 29
2019-09-11 22:00:00 22.8 12 Nordeste 42 Norte 0 -- -- 23
2019-09-11 21:00:00 23.8 15 Norte 39 Nordeste 0 -- -- 23
2019-09-11 20:00:00 23.9 15 Norte 35 Norte 0 -- -- 26
2019-09-11 19:00:00 22.4 8 Nordeste 20 Este 0 -- -- 49
2019-09-11 18:00:00 23.3 8 Nordeste 19 Noroeste 0 -- -- 54
2019-09-11 17:00:00 25.7 6 Oeste 19 Sudoeste 0 -- -- 40
2019-09-11 16:00:00 25.5 8 Oeste 18 Noroeste 0 -- -- 45
2019-09-11 15:00:00 23.8 9 Norte 21 Nordeste 0 -- -- 54
2019-09-11 14:00:00 24.3 10 Norte 20 Norte 0 -- -- 54
2019-09-11 13:00:00 24.2 7 Noroeste 15 Oeste 0 -- -- 47
2019-09-11 12:00:00 24.8 6 Noroeste 15 Nordeste 0 -- -- 42
2019-09-11 11:00:00 23.2 11 Nordeste 18 Nordeste 0 -- -- 36
2019-09-11 10:00:00 20.9 0 Calma 6 Nordeste 0 -- -- 20
2019-09-11 09:00:00 20.7 2 Sudeste 18 Nordeste 0 -- -- 18
2019-09-11 08:00:00 22.3 9 Nordeste 26 Este 0 -- -- 12
2019-09-11 07:00:00 23.3 10 Nordeste 29 Nordeste 0 -- -- 11
2019-09-11 06:00:00 22.9 7 Este 17 Este 0 -- -- 10
2019-09-11 05:00:00 23.5 4 Este 24 Nordeste 0 -- -- 16
2019-09-11 04:00:00 24.1 9 Este 28 Nordeste 0 -- -- 16
2019-09-11 03:00:00 24.9 10 Nordeste 25 Nordeste 0 -- -- 11
2019-09-11 02:00:00 23.7 5 Sur 27 Nordeste 0 -- -- 15
2019-09-11 01:00:00 24.6 12 Este 32 Nordeste 0 -- -- 18
2019-09-11 00:00:00 24 8 Este 21 Este 0 -- -- 22
2019-09-10 23:00:00 23.4 4 Sur 11 Sudoeste 0 -- -- 29
2019-09-10 22:00:00 24.6 5 Sur 26 Sudoeste 0 -- -- 29
2019-09-10 21:00:00 25.5 7 Oeste 33 Noroeste 0 -- -- 27
2019-09-10 20:00:00 26.2 10 Noroeste 29 Oeste 0 -- -- 26
2019-09-10 19:00:00 27.6 12 Oeste 40 Oeste 0 -- -- 25
2019-09-10 18:00:00 28 9 Sudoeste 26 Sudoeste 0 -- -- 29
2019-09-10 17:00:00 28.9 9 Noroeste 31 Norte 0 -- -- 30
2019-09-10 16:00:00 28.1 11 Oeste 21 Noroeste 0 -- -- 35
2019-09-10 15:00:00 27.1 10 Norte 24 Sudoeste 0 -- -- 48
2019-09-10 14:00:00 27.4 8 Sudoeste 19 Nordeste 0 -- -- 36
2019-09-10 13:00:00 25.9 7 Oeste 18 Norte 0 -- -- 40
2019-09-10 12:00:00 24.1 4 Oeste 13 Oeste 0 -- -- 43
2019-09-10 11:00:00 23.9 6 Nordeste 19 Nordeste 0 -- -- 37
2019-09-10 10:00:00 22.2 6 Sur 10 Sur 0 -- -- 39
2019-09-10 09:00:00 21 0 Calma 13 Nordeste 0 -- -- 40
2019-09-10 08:00:00 23.1 7 Oeste 18 Sudoeste 0 -- -- 36
2019-09-10 07:00:00 22.2 7 Sur 13 Sudoeste 0 -- -- 38
2019-09-10 06:00:00 21.6 4 Sur 12 Sur 0 -- -- 40
2019-09-10 05:00:00 22.2 8 Sur 12 Sudoeste 0 -- -- 39
2019-09-10 04:00:00 22.1 6 Sur 12 Sudoeste 0 -- -- 39
2019-09-10 03:00:00 22.2 7 Sudoeste 12 Sudoeste 0 -- -- 38
2019-09-10 02:00:00 21.5 6 Sur 10 Sur 0 -- -- 35
2019-09-10 01:00:00 20 4 Sur 12 Este 0 -- -- 41
2019-09-10 00:00:00 20.4 4 Noroeste 8 Nordeste 0 -- -- 43
2019-09-09 23:00:00 20.1 4 Este 6 Este 0 -- -- 38
2019-09-09 22:00:00 20.5 3 Nordeste 10 Este 0 -- -- 39
2019-09-09 21:00:00 20.9 9 Este 13 Nordeste 0 -- -- 35
2019-09-09 20:00:00 22.5 8 Nordeste 14 Nordeste 0 -- -- 32
2019-09-09 19:00:00 24 6 Nordeste 18 Este 0 -- -- 30
2019-09-09 18:00:00 24.3 9 Este 27 Nordeste 0 -- -- 30
2019-09-09 17:00:00 24.5 7 Este 27 Norte 0 -- -- 31
2019-09-09 16:00:00 24.2 10 Noroeste 30 Norte 0 -- -- 33
2019-09-09 15:00:00 24.1 11 Norte 33 Norte 0 -- -- 33
2019-09-09 14:00:00 24.5 9 Norte 26 Nordeste 0 -- -- 31
2019-09-09 13:00:00 23.6 12 Nordeste 36 Noroeste 0 -- -- 30
2019-09-09 12:00:00 23 11 Noroeste 26 Nordeste 0 -- -- 31
2019-09-09 11:00:00 22.5 13 Nordeste 31 Nordeste 0 -- -- 33
2019-09-09 10:00:00 21.2 12 Nordeste 28 Este 0 -- -- 32
2019-09-09 09:00:00 20.5 9 Oeste 26 Norte 0 -- -- 33
2019-09-09 08:00:00 19.6 8 Noroeste 23 Este 0 -- -- 34
2019-09-09 07:00:00 19.1 8 Noroeste 23 Norte 0 -- -- 34
2019-09-09 06:00:00 18.9 6 Sudoeste 17 Sudoeste 0 -- -- 35
2019-09-09 05:00:00 18.9 8 Sudoeste 18 Sudoeste 0 -- -- 35
2019-09-09 04:00:00 18.9 5 Sudoeste 20 Sur 0 -- -- 35
2019-09-09 03:00:00 19.1 6 Sudoeste 23 Sur 0 -- -- 35
2019-09-09 02:00:00 19.6 9 Sudeste 32 Nordeste 0 -- -- 36
2019-09-09 01:00:00 19.5 12 Sudoeste 29 Sudeste 0 -- -- 36
2019-09-09 00:00:00 19.6 10 Sur 34 Este 0 -- -- 37
2019-09-08 23:00:00 19.4 13 Sudeste 34 Sudeste 0 -- -- 45
2019-09-08 22:00:00 19.5 14 Sudeste 33 Sur 0 -- -- 48
2019-09-08 21:00:00 19.6 10 Sur 35 Este 0 -- -- 53
2019-09-08 20:00:00 20.3 7 Sur 24 Nordeste 0 -- -- 57
2019-09-08 19:00:00 20.6 7 Sur 20 Nordeste 0 -- -- 68
2019-09-08 18:00:00 21.5 7 Noroeste 23 Nordeste 0 -- -- 63
2019-09-08 17:00:00 22.8 9 Nordeste 33 Norte 0 -- -- 52
2019-09-08 16:00:00 23.5 11 Noroeste 23 Oeste 0 -- -- 49
2019-09-08 15:00:00 22.6 8 Noroeste 23 Oeste 0 -- -- 62
2019-09-08 14:00:00 22.1 10 Oeste 24 Norte 0 -- -- 63
2019-09-08 13:00:00 21.1 8 Norte 20 Norte 0 -- -- 63
2019-09-08 12:00:00 20.6 8 Nordeste 16 Norte 0 -- -- 61
2019-09-08 11:00:00 19.1 8 Nordeste 13 Nordeste 0 -- -- 67
2019-09-08 10:00:00 19.1 4 Nordeste 12 Nordeste 0 -- -- 45
2019-09-08 09:00:00 17.9 0 Calma 13 Nordeste 0 -- -- 39
2019-09-08 08:00:00 16.3 0 Calma 12 Nordeste 0 -- -- 43
2019-09-08 07:00:00 17.9 0 Calma 12 Este 0 -- -- 37
2019-09-08 06:00:00 18.1 2 Nordeste 6 Nordeste 0 -- -- 36
2019-09-08 05:00:00 18.2 0 Calma 4 Norte 0 -- -- 36
2019-09-08 04:00:00 19 5 Este 8 Este 0 -- -- 35
2019-09-08 03:00:00 19.3 3 Sudeste 6 Sudeste 0 -- -- 35
2019-09-08 02:00:00 19.5 4 Sudeste 7 Sudeste 0 -- -- 36
2019-09-08 01:00:00 19.1 2 Sudeste 7 Sur 0 -- -- 36
2019-09-08 00:00:00 19 4 Este 9 Este 0 -- -- 37
2019-09-07 23:00:00 18.7 3 Este 5 Este 0 -- -- 39
2019-09-07 22:00:00 16.3 2 Oeste 5 Noroeste 0 -- -- 87
2019-09-07 21:00:00 17.2 0 Calma 11 Nordeste 0 -- -- 83
2019-09-07 20:00:00 19.2 4 Oeste 13 Nordeste 0 -- -- 73
2019-09-07 19:00:00 19.5 10 Nordeste 17 Este 0 -- -- 74
2019-09-07 18:00:00 20.9 9 Nordeste 22 Noroeste 0 -- -- 69
2019-09-07 17:00:00 21.9 6 Norte 21 Norte 0 -- -- 65
2019-09-07 16:00:00 23.1 7 Oeste 20 Norte 0 -- -- 58
2019-09-07 15:00:00 22.2 8 Oeste 19 Sudoeste 0 -- -- 62
2019-09-07 14:00:00 22.1 8 Noroeste 15 Oeste 0 -- -- 62
2019-09-07 13:00:00 20.7 6 Norte 20 Noroeste 0 -- -- 68
2019-09-07 12:00:00 20.7 9 Oeste 16 Noroeste 0 -- -- 64
2019-09-07 11:00:00 19.5 4 Noroeste 9 Oeste 0 -- -- 64
2019-09-07 10:00:00 18.5 4 Noroeste 7 Noroeste 0 -- -- 54
2019-09-07 09:00:00 18.1 0 Calma 5 Sudeste 0 -- -- 42
2019-09-07 08:00:00 16.2 0 Calma 8 Sudeste 0 -- -- 47
2019-09-07 07:00:00 19.5 9 Nordeste 24 Nordeste 0 -- -- 38
2019-09-07 06:00:00 20.4 11 Nordeste 20 Nordeste 0 -- -- 32
2019-09-07 05:00:00 21 8 Nordeste 13 Nordeste 0 -- -- 30
2019-09-07 04:00:00 20.7 3 Sudoeste 19 Nordeste 0 -- -- 33
2019-09-07 03:00:00 20.2 7 Este 13 Nordeste 0 -- -- 33
2019-09-07 02:00:00 20.4 5 Este 20 Nordeste 0 -- -- 34
2019-09-07 01:00:00 20.7 6 Nordeste 19 Sudeste 0 -- -- 36
2019-09-07 00:00:00 19.1 4 Este 8 Sur 0 -- -- 44
2019-09-06 23:00:00 18.4 5 Sur 16 Norte 0 -- -- 50
2019-09-06 22:00:00 16.7 5 Sudeste 10 Sudeste 0 -- -- 65
2019-09-06 21:00:00 15.9 3 Sudoeste 13 Sudoeste 0 -- -- 81
2019-09-06 20:00:00 18.6 5 Oeste 15 Nordeste 0 -- -- 72
2019-09-06 19:00:00 19 9 Nordeste 14 Nordeste 0 -- -- 78
2019-09-06 18:00:00 18.7 5 Oeste 14 Sur 0 -- -- 81
2019-09-06 17:00:00 19.3 8 Sudoeste 25 Norte 0 -- -- 76
2019-09-06 16:00:00 19.5 8 Norte 20 Norte 0 -- -- 74
2019-09-06 15:00:00 20.2 9 Sudoeste 24 Norte 0 -- -- 72
2019-09-06 14:00:00 20.2 9 Norte 20 Noroeste 0 -- -- 69
2019-09-06 13:00:00 19.9 9 Norte 24 Norte 0 -- -- 65
2019-09-06 12:00:00 19.1 12 Nordeste 24 Norte 0 -- -- 64
2019-09-06 11:00:00 18.1 6 Oeste 11 Oeste 0 -- -- 66
2019-09-06 10:00:00 14.6 3 Noroeste 8 Sudeste 0 -- -- 66
2019-09-06 09:00:00 13.5 4 Sudeste 10 Nordeste 0 -- -- 64
2019-09-06 08:00:00 13 3 Nordeste 11 Nordeste 0 -- -- 69
2019-09-06 07:00:00 13 4 Sur 9 Este 0 -- -- 63
2019-09-06 06:00:00 13.3 5 Sudeste 10 Nordeste 0 -- -- 61
2019-09-06 05:00:00 13.1 4 Nordeste 8 Sur 0 -- -- 81
2019-09-06 04:00:00 13.2 2 Este 18 Nordeste 0 -- -- 73
2019-09-06 03:00:00 13.7 5 Este 15 Este 0 -- -- 86
2019-09-06 02:00:00 14.1 5 Este 17 Este 0 -- -- 85
2019-09-06 01:00:00 16.6 5 Sudoeste 15 Sur 0 -- -- 43
2019-09-06 00:00:00 17.5 10 Sudoeste 24 Sudeste 0 -- -- 44
2019-09-05 23:00:00 18.5 8 Sudoeste 13 Sur 0 -- -- 40
2019-09-05 22:00:00 16.8 4 Sudoeste 10 Sudoeste 0 -- -- 72
2019-09-05 21:00:00 17.6 5 Sudoeste 9 Oeste 0 -- -- 76
2019-09-05 20:00:00 20.1 6 Oeste 12 Noroeste 0 -- -- 67
2019-09-05 19:00:00 20.6 6 Oeste 13 Oeste 0 -- -- 70
2019-09-05 18:00:00 22.6 7 Oeste 19 Nordeste 0 -- -- 64
2019-09-05 17:00:00 20.5 10 Nordeste 21 Nordeste 0 -- -- 71
2019-09-05 16:00:00 21.3 11 Nordeste 23 Norte 0 -- -- 67
2019-09-05 15:00:00 22.1 8 Nordeste 22 Nordeste 0 -- -- 62
2019-09-05 14:00:00 23 8 Oeste 20 Oeste 0 -- -- 60
2019-09-05 13:00:00 24.8 8 Noroeste 15 Oeste 0 -- -- 44
2019-09-05 12:00:00 23.9 5 Oeste 12 Noroeste 0 -- -- 44
2019-09-05 11:00:00 23.2 5 Oeste 10 Oeste 0 -- -- 36
2019-09-05 10:00:00 19.8 4 Sudoeste 10 Este 0 -- -- 33
2019-09-05 09:00:00 18.6 3 Sur 5 Sur 0 -- -- 30
2019-09-05 08:00:00 20.1 0 Calma 13 Sudoeste 0 -- -- 25
2019-09-05 07:00:00 18.1 3 Sudoeste 9 Sur 0 -- -- 38
2019-09-05 06:00:00 19.6 4 Sudeste 12 Sudoeste 0 -- -- 16
2019-09-05 05:00:00 20.4 2 Oeste 14 Sur 0 -- -- 20
2019-09-05 04:00:00 21.1 8 Sudoeste 12 Sudoeste 0 -- -- 15
2019-09-05 03:00:00 19.1 0 Calma 6 Sur 0 -- -- 38
2019-09-05 02:00:00 20.9 4 Sur 17 Este 0 -- -- 15
2019-09-05 01:00:00 19.9 0 Calma 8 Sur 0 -- -- 31
2019-09-05 00:00:00 19.6 3 Sur 9 Sudeste 0 -- -- 28
2019-09-04 23:00:00 18.9 2 Sudoeste 9 Sudoeste 0 -- -- 68
2019-09-04 22:00:00 20.6 5 Sudoeste 12 Sudoeste 0 -- -- 34
2019-09-04 21:00:00 20.1 5 Sudoeste 10 Sudoeste 0 -- -- 64
2019-09-04 20:00:00 21.2 3 Oeste 10 Sudoeste 0 -- -- 64
2019-09-04 19:00:00 23.3 6 Oeste 14 Noroeste 0 -- -- 56
2019-09-04 18:00:00 23.9 7 Oeste 18 Noroeste 0 -- -- 53
2019-09-04 17:00:00 24.5 9 Oeste 20 Noroeste 0 -- -- 52
2019-09-04 16:00:00 23.8 10 Norte 19 Oeste 0 -- -- 56
2019-09-04 15:00:00 25.2 8 Noroeste 17 Noroeste 0 -- -- 46
2019-09-04 14:00:00 24.4 8 Noroeste 17 Oeste 0 -- -- 45
2019-09-04 13:00:00 24.2 6 Oeste 17 Noroeste 0 -- -- 41
2019-09-04 12:00:00 22.9 5 Oeste 16 Nordeste 0 -- -- 52
2019-09-04 11:00:00 22 5 Oeste 9 Oeste 0 -- -- 44
2019-09-04 10:00:00 18.9 3 Norte 6 Nordeste 0 -- -- 56
2019-09-04 09:00:00 17.6 0 Calma 9 Sur 0 -- -- 53
2019-09-04 08:00:00 19.4 6 Sur 10 Sudoeste 0 -- -- 19
2019-09-04 07:00:00 16.6 2 Sudoeste 6 Sur 0 -- -- 61
2019-09-04 06:00:00 18.6 2 Sudoeste 10 Sudoeste 0 -- -- 53
2019-09-04 05:00:00 16.4 3 Sur 5 Sudoeste 0 -- -- 66
2019-09-04 04:00:00 17 3 Sudoeste 7 Sudoeste 0 -- -- 61
2019-09-04 03:00:00 17.5 0 Calma 8 Sur 0 -- -- 48
2019-09-04 02:00:00 17.6 2 Sudoeste 11 Sudoeste 0 -- -- 51
2019-09-04 01:00:00 18.4 2 Sudoeste 8 Sudoeste 0 -- -- 49
2019-09-04 00:00:00 19.2 5 Sudoeste 9 Sudoeste 0 -- -- 48
2019-09-03 23:00:00 19.9 3 Sudoeste 10 Nordeste 0 -- -- 30
2019-09-03 22:00:00 20.6 4 Sur 10 Sur 0 -- -- 19
2019-09-03 21:00:00 21.8 7 Sur 13 Sur 0 -- -- 18
2019-09-03 20:00:00 21 4 Oeste 17 Nordeste 0 -- -- 68
2019-09-03 19:00:00 22.2 6 Nordeste 21 Nordeste 0 -- -- 63
2019-09-03 18:00:00 23.9 10 Norte 17 Nordeste 0 -- -- 59
2019-09-03 17:00:00 25.3 8 Oeste 18 Oeste 0 -- -- 44
2019-09-03 16:00:00 24.6 9 Oeste 18 Oeste 0 -- -- 52
2019-09-03 15:00:00 23.9 8 Oeste 17 Noroeste 0 -- -- 54
2019-09-03 14:00:00 22.5 10 Noroeste 21 Nordeste 0 -- -- 58
2019-09-03 13:00:00 23.9 7 Oeste 13 Oeste 0 -- -- 48
2019-09-03 12:00:00 22.2 6 Oeste 15 Este 0 -- -- 56
2019-09-03 11:00:00 21.7 9 Nordeste 15 Nordeste 0 -- -- 55
2019-09-03 10:00:00 20.3 3 Sudoeste 12 Sudoeste 0 -- -- 36
2019-09-03 09:00:00 21.5 8 Sudoeste 14 Sur 0 -- -- 14
2019-09-03 08:00:00 19.6 3 Sudoeste 9 Sur 0 -- -- 23
2019-09-03 07:00:00 20.3 6 Sudoeste 9 Sudoeste 0 -- -- 19
2019-09-03 06:00:00 18.7 4 Sur 9 Sudoeste 0 -- -- 28
2019-09-03 05:00:00 19.8 2 Sudoeste 10 Sur 0 -- -- 27
2019-09-03 04:00:00 20.6 6 Sur 10 Sur 0 -- -- 19
2019-09-03 03:00:00 21 5 Sudoeste 10 Sudoeste 0 -- -- 20
2019-09-03 02:00:00 20.6 5 Sur 8 Sur 0 -- -- 25
2019-09-03 01:00:00 20.4 0 Calma 9 Sudoeste 0 -- -- 28
2019-09-03 00:00:00 20.8 6 Sur 9 Sur 0 -- -- 27
2019-09-02 23:00:00 20.5 4 Sur 9 Sudoeste 0 -- -- 29
2019-09-02 22:00:00 20.4 6 Sudoeste 12 Sudoeste 0 -- -- 49
2019-09-02 21:00:00 20 4 Sudoeste 10 Oeste 0 -- -- 62
2019-09-02 20:00:00 22.5 5 Oeste 15 Nordeste 0 -- -- 54
2019-09-02 19:00:00 24.9 6 Noroeste 16 Oeste 0 -- -- 40
2019-09-02 18:00:00 25 8 Norte 17 Noroeste 0 -- -- 42
2019-09-02 17:00:00 25.9 6 Oeste 18 Oeste 0 -- -- 33
2019-09-02 16:00:00 24.5 7 Oeste 21 Norte 0 -- -- 53
2019-09-02 15:00:00 24 7 Oeste 19 Norte 0 -- -- 54
2019-09-02 14:00:00 22.6 8 Noroeste 18 Noroeste 0 -- -- 59
2019-09-02 13:00:00 22.4 5 Noroeste 15 Noroeste 0 -- -- 58
2019-09-02 12:00:00 21.8 8 Oeste 14 Oeste 0 -- -- 56
2019-09-02 11:00:00 20.6 5 Oeste 12 Oeste 0 -- -- 51
2019-09-02 10:00:00 18.7 5 Nordeste 16 Nordeste 0 -- -- 67
2019-09-02 09:00:00 19.1 3 Noroeste 6 Noroeste 0 -- -- 38
2019-09-02 08:00:00 18.1 3 Este 13 Este 0 -- -- 39
2019-09-02 07:00:00 18.6 7 Este 17 Nordeste 0 -- -- 41
2019-09-02 06:00:00 21.2 8 Sur 14 Sudoeste 0 -- -- 23
2019-09-02 05:00:00 20.1 2 Este 9 Este 0 -- -- 39
2019-09-02 04:00:00 20.3 4 Este 8 Este 0 -- -- 37
2019-09-02 03:00:00 20.7 4 Sudeste 5 Sudeste 0 -- -- 37
2019-09-02 02:00:00 20.9 0 Calma 8 Este 0 -- -- 43
2019-09-02 01:00:00 20.9 5 Este 10 Este 0 -- -- 47
2019-09-02 00:00:00 21.3 4 Este 12 Nordeste 0 -- -- 54
2019-09-01 23:00:00 22.8 4 Este 9 Este 0 -- -- 21
2019-09-01 22:00:00 22.3 3 Sudeste 7 Nordeste 0 -- -- 31
2019-09-01 21:00:00 23.1 4 Sur 9 Oeste 0 -- -- 41
2019-09-01 20:00:00 25.5 6 Oeste 11 Sudoeste 0 -- -- 39
2019-09-01 19:00:00 26.6 6 Oeste 17 Oeste 0 -- -- 42
2019-09-01 18:00:00 26.6 7 Oeste 17 Oeste 0 -- -- 45
2019-09-01 17:00:00 26.1 8 Sudoeste 23 Norte 0 -- -- 46
2019-09-01 16:00:00 24.3 10 Nordeste 21 Norte 0 -- -- 56
2019-09-01 15:00:00 25.8 10 Sur 19 Oeste 0 -- -- 49
2019-09-01 14:00:00 27.2 10 Sudoeste 23 Norte 0 -- -- 32
2019-09-01 13:00:00 26.1 10 Nordeste 21 Nordeste 0 -- -- 33
2019-09-01 12:00:00 26.8 7 Noroeste 21 Norte 0 -- -- 31
2019-09-01 11:00:00 26.8 8 Norte 14 Norte 0 -- -- 22
2019-09-01 10:00:00 24.3 0 Calma 12 Este 0 -- -- 23
2019-09-01 09:00:00 23.5 8 Este 12 Nordeste 0 -- -- 25
2019-09-01 08:00:00 23.5 5 Este 10 Este 0 -- -- 25
2019-09-01 07:00:00 23.8 7 Este 12 Este 0 -- -- 24
2019-09-01 06:00:00 24.2 9 Nordeste 17 Nordeste 0 -- -- 22
2019-09-01 05:00:00 24.6 5 Este 15 Nordeste 0 -- -- 20
2019-09-01 04:00:00 25.9 10 Nordeste 19 Norte 0 -- -- 19
2019-09-01 03:00:00 25.6 5 Nordeste 15 Nordeste 0 -- -- 21
2019-09-01 02:00:00 24.6 0 Calma 8 Sur 0 -- -- 26
2019-09-01 01:00:00 24.6 3 Nordeste 9 Sudeste 0 -- -- 25
2019-09-01 00:00:00 24.8 4 Este 10 Sudeste 0 -- -- 27
2019-08-31 23:00:00 25.3 5 Sudeste 10 Sudeste 0 -- -- 21
2019-08-31 22:00:00 25.5 4 Sudeste 6 Sudeste 0 -- -- 25
2019-08-31 21:00:00 26.1 0 Calma 6 Norte 0 -- -- 41
2019-08-31 20:00:00 26.9 3 Noroeste 11 Nordeste 0 -- -- 43
2019-08-31 19:00:00 28 6 Norte 13 Nordeste 0 -- -- 35
2019-08-31 18:00:00 29.1 7 Oeste 18 Oeste 0 -- -- 42
2019-08-31 17:00:00 29.2 6 Noroeste 17 Noroeste 0 -- -- 39
2019-08-31 16:00:00 27.5 8 Nordeste 23 Nordeste 0 -- -- 43
2019-08-31 15:00:00 27.5 10 Nordeste 22 Nordeste 0 -- -- 42
2019-08-31 14:00:00 29.5 9 Noroeste 18 Noroeste 0 -- -- 38
2019-08-31 13:00:00 28.8 7 Sudoeste 17 Sur 0 -- -- 28
2019-08-31 12:00:00 29.6 10 Sudoeste 21 Sudoeste 0 -- -- 23
2019-08-31 11:00:00 29.6 6 Oeste 13 Sudoeste 0 -- -- 16
2019-08-31 10:00:00 26.7 0 Calma 9 Norte 0 -- -- 17
2019-08-31 09:00:00 25.9 4 Sur 10 Nordeste 0 -- -- 17
2019-08-31 08:00:00 25.3 4 Este 8 Nordeste 0 -- -- 18
2019-08-31 07:00:00 24.9 5 Sudeste 8 Sudeste 0 -- -- 18
2019-08-31 06:00:00 25 6 Sudeste 7 Sudeste 0 -- -- 19
2019-08-31 05:00:00 24.6 4 Sudeste 11 Nordeste 0 -- -- 18
2019-08-31 04:00:00 24.8 5 Sur 10 Sudeste 0 -- -- 20
2019-08-31 03:00:00 25.5 4 Norte 17 Este 0 -- -- 18
2019-08-31 02:00:00 25.6 3 Norte 8 Oeste 0 -- -- 20
2019-08-31 01:00:00 25.5 0 Calma 10 Este 0 -- -- 20
2019-08-31 00:00:00 25.4 0 Calma 5 Sudeste 0 -- -- 30
2019-08-30 23:00:00 25.7 0 Calma 6 Norte 0 -- -- 29
2019-08-30 22:00:00 26.1 0 Calma 6 Sudeste 0 -- -- 25
2019-08-30 21:00:00 26.2 2 Sudeste 7 Noroeste 0 -- -- 33
2019-08-30 20:00:00 27.9 3 Oeste 13 Noroeste 0 -- -- 33
2019-08-30 19:00:00 29.6 5 Oeste 15 Noroeste 0 -- -- 32
2019-08-30 18:00:00 29.1 8 Norte 22 Norte 0 -- -- 29
2019-08-30 17:00:00 29.7 10 Sur 18 Sur 0 -- -- 40
2019-08-30 16:00:00 28.4 9 Norte 21 Noroeste 0 -- -- 29
2019-08-30 15:00:00 30.3 9 Sudoeste 18 Sudoeste 0 -- -- 27
2019-08-30 14:00:00 29.6 9 Noroeste 22 Norte 0 -- -- 28
2019-08-30 13:00:00 28.9 11 Norte 23 Norte 0 -- -- 26
2019-08-30 12:00:00 27.7 13 Norte 23 Norte 0 -- -- 26
2019-08-30 11:00:00 26.9 5 Nordeste 19 Norte 0 -- -- 21
2019-08-30 10:00:00 23.2 6 Este 14 Nordeste 0 -- -- 28
2019-08-30 09:00:00 21.3 13 Este 20 Este 0 -- -- 40
2019-08-30 08:00:00 20.6 10 Este 18 Nordeste 0 -- -- 44
2019-08-30 07:00:00 23.9 0 Calma 12 Nordeste 0 -- -- 24
2019-08-30 06:00:00 25.1 3 Sudeste 11 Este 0 -- -- 20
2019-08-30 05:00:00 24.4 7 Este 10 Nordeste 0 -- -- 22
2019-08-30 04:00:00 24.4 2 Sur 9 Sur 0 -- -- 22
2019-08-30 03:00:00 24.6 3 Sudeste 6 Sur 0 -- -- 23
2019-08-30 02:00:00 24.4 0 Calma 6 Sudeste 0 -- -- 28
2019-08-30 01:00:00 24.7 5 Nordeste 9 Sur 0 -- -- 24
2019-08-30 00:00:00 24.1 0 Calma 6 Sudeste 0 -- -- 42
2019-08-29 23:00:00 24.4 2 Sudeste 5 Sudeste 0 -- -- 46
2019-08-29 22:00:00 24.8 3 Este 8 Nordeste 0 -- -- 43
2019-08-29 21:00:00 25.7 4 Este 9 Nordeste 0 -- -- 44
2019-08-29 20:00:00 28.1 4 Oeste 13 Nordeste 0 -- -- 43
2019-08-29 19:00:00 29.6 4 Oeste 17 Este 0 -- -- 40
2019-08-29 18:00:00 28.9 8 Nordeste 19 Nordeste 0 -- -- 39
2019-08-29 17:00:00 29.4 9 Norte 24 Norte 0 -- -- 35
2019-08-29 16:00:00 28.3 10 Norte 30 Norte 0 -- -- 36
2019-08-29 15:00:00 28.6 9 Nordeste 30 Nordeste 0 -- -- 34
2019-08-29 14:00:00 28.1 12 Nordeste 27 Este 0 -- -- 36
2019-08-29 13:00:00 26.5 11 Noroeste 26 Nordeste 0 -- -- 48
2019-08-29 12:00:00 26.4 12 Norte 26 Norte 0 -- -- 38
2019-08-29 11:00:00 26.9 9 Oeste 34 Este 0 -- -- 26
2019-08-29 10:00:00 25.5 7 Oeste 24 Norte 0 -- -- 19
2019-08-29 09:00:00 22.9 5 Nordeste 19 Nordeste 0 -- -- 29
2019-08-29 08:00:00 24 4 Este 16 Nordeste 0 -- -- 26
2019-08-29 07:00:00 23.5 2 Sudeste 8 Nordeste 0 -- -- 25
2019-08-29 06:00:00 24 6 Este 12 Este 0 -- -- 26
2019-08-29 05:00:00 23.8 2 Sudeste 5 Sudeste 0 -- -- 25
2019-08-29 04:00:00 23.7 2 Sudeste 8 Nordeste 0 -- -- 26
2019-08-29 03:00:00 24.1 5 Sudeste 8 Sudeste 0 -- -- 26
2019-08-29 02:00:00 24.3 5 Sudeste 12 Oeste 0 -- -- 25
2019-08-29 01:00:00 25.7 8 Norte 19 Noroeste 0 -- -- 33
2019-08-29 00:00:00 24.7 2 Norte 9 Nordeste 0 -- -- 28
2019-08-28 23:00:00 24.3 5 Nordeste 14 Nordeste 0 -- -- 32
2019-08-28 22:00:00 26 5 Norte 12 Nordeste 0 -- -- 26
2019-08-28 21:00:00 23.8 8 Este 15 Nordeste 0 -- -- 58
2019-08-28 20:00:00 26.5 4 Oeste 13 Noroeste 0 -- -- 49
2019-08-28 19:00:00 28.1 6 Oeste 14 Nordeste 0 -- -- 45
2019-08-28 18:00:00 26.8 9 Nordeste 20 Nordeste 0 -- -- 49
2019-08-28 17:00:00 27.9 9 Norte 25 Nordeste 0 -- -- 46
2019-08-28 16:00:00 28.6 8 Oeste 24 Norte 0 -- -- 44
2019-08-28 15:00:00 27.3 11 Norte 22 Nordeste 0 -- -- 47
2019-08-28 14:00:00 26.3 12 Nordeste 22 Nordeste 0 -- -- 47
2019-08-28 13:00:00 26.4 12 Nordeste 18 Nordeste 0 -- -- 42
2019-08-28 12:00:00 26.5 10 Nordeste 18 Este 0 -- -- 34
2019-08-28 11:00:00 27.9 4 Oeste 10 Sudoeste 0 -- -- 20
2019-08-28 10:00:00 25.1 4 Sudoeste 14 Nordeste 0 -- -- 24
2019-08-28 09:00:00 23.4 6 Nordeste 10 Nordeste 0 -- -- 30
2019-08-28 08:00:00 22.8 3 Sur 8 Sur 0 -- -- 27
2019-08-28 07:00:00 22.9 4 Sur 6 Sur 0 -- -- 28
2019-08-28 06:00:00 22.8 5 Este 10 Este 0 -- -- 31
2019-08-28 05:00:00 22.9 3 Este 8 Nordeste 0 -- -- 29
2019-08-28 04:00:00 22.6 0 Calma 6 Nordeste 0 -- -- 32
2019-08-28 03:00:00 22.6 0 Calma 8 Sur 0 -- -- 35
2019-08-28 02:00:00 23.2 3 Sur 8 Nordeste 0 -- -- 29
2019-08-28 01:00:00 23.2 0 Calma 5 Sudeste 0 -- -- 31
2019-08-28 00:00:00 23.3 0 Calma 4 Sudeste 0 -- -- 29
2019-08-27 23:00:00 23.8 3 Nordeste 10 Este 0 -- -- 28
2019-08-27 22:00:00 23.6 0 Calma 9 Norte 0 -- -- 28
2019-08-27 21:00:00 23.9 0 Calma 15 Nordeste 0 -- -- 31
2019-08-27 20:00:00 25.2 6 Este 21 Este 0 -- -- 27
2019-08-27 19:00:00 26.5 7 Nordeste 22 Este 0 -- -- 25
2019-08-27 18:00:00 25.2 6 Nordeste 20 Nordeste 0 -- -- 45
2019-08-27 17:00:00 25.2 10 Nordeste 21 Nordeste 0 -- -- 47
2019-08-27 16:00:00 24.1 11 Nordeste 22 Nordeste 0 -- -- 56
2019-08-27 15:00:00 25.8 9 Norte 29 Nordeste 0 -- -- 52
2019-08-27 14:00:00 27.8 8 Norte 29 Sur 0 -- -- 42
2019-08-27 13:00:00 29.3 6 Noroeste 14 Noroeste 0 -- -- 27
2019-08-27 12:00:00 25.2 8 Nordeste 29 Nordeste 0 -- -- 41
2019-08-27 11:00:00 27.6 8 Nordeste 15 Nordeste 0 -- -- 27
2019-08-27 10:00:00 27.3 4 Noroeste 9 Nordeste 0 -- -- 24
2019-08-27 09:00:00 25.8 2 Norte 8 Sudeste 0 -- -- 25
2019-08-27 08:00:00 25 3 Sudeste 17 Nordeste 0 -- -- 26
2019-08-27 07:00:00 25.6 4 Este 22 Norte 0 -- -- 25
2019-08-27 06:00:00 25.5 5 Sur 17 Este 0 -- -- 25
2019-08-27 05:00:00 25.5 6 Sudeste 24 Este 0 -- -- 24
2019-08-27 04:00:00 26 7 Nordeste 20 Este 0 -- -- 24
2019-08-27 03:00:00 25.4 5 Sudoeste 23 Este 0 -- -- 24
2019-08-27 02:00:00 25.4 7 Sur 24 Sur 0 -- -- 24
2019-08-27 01:00:00 25.3 6 Sur 23 Oeste 0 -- -- 24
2019-08-27 00:00:00 26 6 Sudoeste 24 Norte 0 -- -- 24
2019-08-26 23:00:00 26.2 7 Sudoeste 36 Noroeste 0 -- -- 23
2019-08-26 22:00:00 26.1 5 Norte 17 Noroeste 0 -- -- 26
2019-08-26 21:00:00 25 4 Oeste 15 Nordeste 0 -- -- 52
2019-08-26 20:00:00 27.1 3 Noroeste 18 Norte 0 -- -- 27
2019-08-26 19:00:00 29.1 6 Noroeste 14 Este 0 -- -- 23
2019-08-26 18:00:00 28.3 6 Norte 18 Norte 0 -- -- 33
2019-08-26 17:00:00 29 7 Norte 15 Oeste 0 -- -- 35
2019-08-26 16:00:00 30.6 7 Oeste 19 Nordeste 0 -- -- 30
2019-08-26 15:00:00 29.9 13 Norte 24 Nordeste 0 -- -- 24
2019-08-26 14:00:00 29.1 6 Noroeste 19 Nordeste 0 -- -- 26
2019-08-26 13:00:00 28.6 8 Norte 25 Noroeste 0 -- -- 26
2019-08-26 12:00:00 28.4 9 Noroeste 20 Norte 0 -- -- 21
2019-08-26 11:00:00 28.2 5 Noroeste 14 Nordeste 0 -- -- 19
2019-08-26 10:00:00 27.1 3 Sur 24 Noroeste 0 -- -- 22
2019-08-26 09:00:00 26.9 11 Norte 28 Norte 0 -- -- 23
2019-08-26 08:00:00 24.7 5 Nordeste 23 Norte 0 -- -- 24
2019-08-26 07:00:00 25.2 6 Noroeste 15 Sur 0 -- -- 22
2019-08-26 06:00:00 24 5 Sudeste 15 Nordeste 0 -- -- 27
2019-08-26 05:00:00 26.1 5 Sudeste 30 Noroeste 0 -- -- 26
2019-08-26 04:00:00 25.6 8 Norte 21 Noroeste 0 -- -- 23
2019-08-26 03:00:00 25.1 9 Este 18 Nordeste 0 -- -- 25
2019-08-26 02:00:00 25.9 9 Este 25 Sudeste 0 -- -- 26
2019-08-26 01:00:00 25.2 9 Este 25 Sur 0 -- -- 27
2019-08-26 00:00:00 27.2 4 Sudoeste 17 Sur 0 -- -- 25
2019-08-25 23:00:00 27.1 6 Sudoeste 28 Oeste 0 -- -- 27
2019-08-25 22:00:00 27.2 5 Sudoeste 29 Oeste 0 -- -- 27
2019-08-25 21:00:00 27.8 13 Norte 30 Norte 0 -- -- 27
2019-08-25 20:00:00 28.6 9 Sudoeste 42 Norte 0 -- -- 27
2019-08-25 19:00:00 28.9 20 Norte 41 Norte 0 -- -- 26
2019-08-25 18:00:00 29.5 17 Norte 40 Este 0 -- -- 27
2019-08-25 17:00:00 31.3 13 Oeste 41 Noroeste 0 -- -- 26
2019-08-25 16:00:00 30.1 23 Norte 50 Norte 0 -- -- 29
2019-08-25 15:00:00 28.8 19 Norte 47 Noroeste 0 -- -- 31
2019-08-25 14:00:00 31.3 15 Noroeste 46 Noroeste 0 -- -- 26
2019-08-25 13:00:00 29.5 11 Oeste 46 Este 0 -- -- 28
2019-08-25 12:00:00 29.7 12 Sur 44 Nordeste 0 -- -- 29
2019-08-25 11:00:00 30.1 11 Este 39 Sudoeste 0 -- -- 29
2019-08-25 10:00:00 28.5 11 Sudeste 27 Sur 0 -- -- 32
2019-08-25 09:00:00 25.8 6 Sudoeste 28 Nordeste 0 -- -- 40
2019-08-25 08:00:00 25.4 8 Este 21 Nordeste 0 -- -- 40
2019-08-25 07:00:00 25.5 6 Sudoeste 22 Nordeste 0 -- -- 35
2019-08-25 06:00:00 25.8 10 Sur 26 Sudoeste 0 -- -- 31
2019-08-25 05:00:00 27.3 12 Sur 31 Sur 0 -- -- 26
2019-08-25 04:00:00 28 9 Sudoeste 26 Sur 0 -- -- 26
2019-08-25 03:00:00 28.5 8 Sudoeste 28 Sur 0 -- -- 26
2019-08-25 02:00:00 28.5 7 Sur 33 Norte 0 -- -- 27
2019-08-25 01:00:00 29.5 18 Noroeste 36 Norte 0 -- -- 25
2019-08-25 00:00:00 28.7 5 Sur 14 Sur 0 -- -- 26
2019-08-24 23:00:00 29.1 4 Sur 15 Sur 0 -- -- 25
2019-08-24 22:00:00 30.1 6 Sudoeste 37 Noroeste 0 -- -- 26
2019-08-24 21:00:00 30.4 5 Sudoeste 15 Sudoeste 0 -- -- 25
2019-08-24 20:00:00 31.6 8 Sudoeste 34 Norte 0 -- -- 22
2019-08-24 19:00:00 31.8 24 Norte 61 Norte 0 -- -- 21
2019-08-24 18:00:00 32.6 31 Norte 58 Norte 0 -- -- 18
2019-08-24 17:00:00 34.2 19 Noroeste 51 Nordeste 0 -- -- 17
2019-08-24 16:00:00 33.7 24 Norte 51 Norte 0 -- -- 18
2019-08-24 15:00:00 34.4 22 Norte 50 Noroeste 0 -- -- 18
2019-08-24 14:00:00 33.9 18 Norte 41 Norte 0 -- -- 18
2019-08-24 13:00:00 33.6 18 Norte 57 Nordeste 0 -- -- 18
2019-08-24 12:00:00 33.2 23 Norte 41 Nordeste 0 -- -- 18
2019-08-24 11:00:00 32.8 17 Norte 38 Norte 0 -- -- 18
2019-08-24 10:00:00 31.6 18 Noroeste 48 Norte 0.2 -- -- 19
2019-08-24 09:00:00 30.6 14 Noroeste 37 Noroeste 0 -- -- 21
2019-08-24 08:00:00 29.6 5 Sudoeste 16 Este 0 -- -- 22
2019-08-24 07:00:00 29.8 9 Noroeste 31 Noroeste 0 -- -- 23
2019-08-24 06:00:00 28.7 5 Sur 22 Sur 0 -- -- 23
2019-08-24 05:00:00 29.3 8 Sudoeste 23 Nordeste 0 -- -- 22
2019-08-24 04:00:00 27.5 4 Este 29 Este 0 -- -- 28
2019-08-24 03:00:00 30.6 9 Sur 22 Sudeste 0 -- -- 18
2019-08-24 02:00:00 30.7 5 Sudeste 17 Sudeste 0 -- -- 18
2019-08-24 01:00:00 30.9 4 Sudoeste 14 Sudoeste 0 -- -- 17
2019-08-24 00:00:00 31.6 6 Nordeste 21 Nordeste 0 -- -- 17
2019-08-23 23:00:00 29.6 4 Sur 11 Nordeste 0 -- -- 19
2019-08-23 22:00:00 29.7 4 Nordeste 9 Norte 0 -- -- 20
2019-08-23 21:00:00 30.3 3 Este 8 Oeste 0 -- -- 19
2019-08-23 20:00:00 31.8 5 Nordeste 13 Este 0 -- -- 19
2019-08-23 19:00:00 33.4 5 Oeste 17 Este 0 -- -- 20
2019-08-23 18:00:00 33.6 7 Este 28 Nordeste 0 -- -- 18
2019-08-23 17:00:00 33.3 12 Nordeste 34 Este 0 -- -- 17
2019-08-23 16:00:00 33.2 12 Nordeste 33 Nordeste 0 -- -- 18
2019-08-23 15:00:00 33.2 11 Este 26 Este 0 -- -- 18
2019-08-23 14:00:00 33.1 10 Nordeste 29 Sudeste 0 -- -- 17
2019-08-23 13:00:00 33 10 Nordeste 36 Este 0 -- -- 16
2019-08-23 12:00:00 33.9 10 Este 32 Nordeste 0 -- -- 16
2019-08-23 11:00:00 33 9 Este 36 Nordeste 0 -- -- 17
2019-08-23 10:00:00 32.3 8 Este 32 Este 0 -- -- 16
2019-08-23 09:00:00 30 4 Oeste 19 Sudeste 0 -- -- 18
2019-08-23 08:00:00 28.7 3 Oeste 10 Este 0 -- -- 19
2019-08-23 07:00:00 29.3 6 Nordeste 15 Este 0 -- -- 19
2019-08-23 06:00:00 29.2 0 Calma 9 Sudoeste 0 -- -- 19
2019-08-23 05:00:00 29 3 Sur 9 Sudeste 0 -- -- 19
2019-08-23 04:00:00 28.4 6 Nordeste 12 Este 0 -- -- 23
2019-08-23 03:00:00 28.8 4 Este 13 Este 0 -- -- 22
2019-08-23 02:00:00 29.1 8 Este 13 Este 0 -- -- 23
2019-08-23 01:00:00 30 4 Sudeste 10 Este 0 -- -- 19
2019-08-23 00:00:00 29.4 6 Sudeste 8 Sudeste 0 -- -- 21